sensor_id;sensor_type;location;lat;lon;timestamp;temperature;humidity
23579;DHT22;11967;50.852;4.400;2022-11-20T00:01:47;9.30;99.90
23579;DHT22;11967;50.852;4.400;2022-11-20T00:04:12;9.30;99.90
23579;DHT22;11967;50.852;4.400;2022-11-20T00:06:38;9.30;99.90
23579;DHT22;11967;50.852;4.400;2022-11-20T00:09:03;9.30;99.90
23579;DHT22;11967;50.852;4.400;2022-11-20T00:11:31;9.40;99.90
23579;DHT22;11967;50.852;4.400;2022-11-20T00:13:59;9.30;99.90
23579;DHT22;11967;50.852;4.400;2022-11-20T00:16:26;9.20;99.90
23579;DHT22;11967;50.852;4.400;2022-11-20T00:18:53;9.30;99.90
23579;DHT22;11967;50.852;4.400;2022-11-20T00:21:20;9.20;99.90
23579;DHT22;11967;50.852;4.400;2022-11-20T00:23:46;9.30;99.90
23579;DHT22;11967;50.852;4.400;2022-11-20T00:26:14;9.20;99.90
23579;DHT22;11967;50.852;4.400;2022-11-20T00:28:40;9.20;99.90
23579;DHT22;11967;50.852;4.400;2022-11-20T00:31:12;9.20;99.90
23579;DHT22;11967;50.852;4.400;2022-11-20T00:33:38;9.20;99.90
23579;DHT22;11967;50.852;4.400;2022-11-20T00:36:09;9.20;99.90
23579;DHT22;11967;50.852;4.400;2022-11-20T00:38:36;9.20;99.90
23579;DHT22;11967;50.852;4.400;2022-11-20T00:41:04;9.20;99.90
23579;DHT22;11967;50.852;4.400;2022-11-20T00:43:30;9.10;99.90
23579;DHT22;11967;50.852;4.400;2022-11-20T00:46:08;9.20;99.90
23579;DHT22;11967;50.852;4.400;2022-11-20T00:48:34;9.10;99.90
23579;DHT22;11967;50.852;4.400;2022-11-20T00:51:00;9.30;99.90
23579;DHT22;11967;50.852;4.400;2022-11-20T00:53:26;9.20;99.90
23579;DHT22;11967;50.852;4.400;2022-11-20T00:55:56;9.20;99.90
23579;DHT22;11967;50.852;4.400;2022-11-20T00:58:23;9.20;99.90
23579;DHT22;11967;50.852;4.400;2022-11-20T01:00:49;9.20;99.90
23579;DHT22;11967;50.852;4.400;2022-11-20T01:03:18;9.30;99.90
23579;DHT22;11967;50.852;4.400;2022-11-20T01:05:43;9.30;99.90
23579;DHT22;11967;50.852;4.400;2022-11-20T01:08:09;9.30;99.90
23579;DHT22;11967;50.852;4.400;2022-11-20T01:10:35;9.30;99.90
23579;DHT22;11967;50.852;4.400;2022-11-20T01:13:00;9.30;99.90
23579;DHT22;11967;50.852;4.400;2022-11-20T01:16:05;9.30;99.90
23579;DHT22;11967;50.852;4.400;2022-11-20T01:18:31;9.30;99.90
23579;DHT22;11967;50.852;4.400;2022-11-20T01:21:02;9.30;99.90
23579;DHT22;11967;50.852;4.400;2022-11-20T01:23:31;9.30;99.90
23579;DHT22;11967;50.852;4.400;2022-11-20T01:25:56;9.30;99.90
23579;DHT22;11967;50.852;4.400;2022-11-20T01:28:24;9.40;99.90
23579;DHT22;11967;50.852;4.400;2022-11-20T01:30:49;9.40;99.90
23579;DHT22;11967;50.852;4.400;2022-11-20T01:33:15;9.40;99.90
23579;DHT22;11967;50.852;4.400;2022-11-20T01:35:40;9.30;99.90
23579;DHT22;11967;50.852;4.400;2022-11-20T01:38:06;9.30;99.90
23579;DHT22;11967;50.852;4.400;2022-11-20T01:40:32;9.30;99.90
23579;DHT22;11967;50.852;4.400;2022-11-20T01:43:21;9.40;99.90
23579;DHT22;11967;50.852;4.400;2022-11-20T01:46:13;9.40;99.90
23579;DHT22;11967;50.852;4.400;2022-11-20T01:49:09;9.40;99.90
23579;DHT22;11967;50.852;4.400;2022-11-20T01:52:06;9.40;99.90
23579;DHT22;11967;50.852;4.400;2022-11-20T01:54:46;9.40;99.90
23579;DHT22;11967;50.852;4.400;2022-11-20T01:57:13;9.40;99.90
23579;DHT22;11967;50.852;4.400;2022-11-20T01:59:44;9.50;99.90
23579;DHT22;11967;50.852;4.400;2022-11-20T02:02:13;9.50;99.90
23579;DHT22;11967;50.852;4.400;2022-11-20T02:04:40;9.50;99.90
23579;DHT22;11967;50.852;4.400;2022-11-20T02:07:06;9.40;99.90
23579;DHT22;11967;50.852;4.400;2022-11-20T02:09:32;9.40;99.90
23579;DHT22;11967;50.852;4.400;2022-11-20T02:11:58;9.50;99.90
23579;DHT22;11967;50.852;4.400;2022-11-20T02:14:25;9.50;99.90
23579;DHT22;11967;50.852;4.400;2022-11-20T02:16:51;9.50;99.90
23579;DHT22;11967;50.852;4.400;2022-11-20T02:19:27;9.50;99.90
23579;DHT22;11967;50.852;4.400;2022-11-20T02:22:14;9.50;99.90
23579;DHT22;11967;50.852;4.400;2022-11-20T02:24:43;9.50;99.90
23579;DHT22;11967;50.852;4.400;2022-11-20T02:27:15;9.40;99.90
23579;DHT22;11967;50.852;4.400;2022-11-20T02:29:50;9.50;99.90
23579;DHT22;11967;50.852;4.400;2022-11-20T02:32:21;9.50;99.90
23579;DHT22;11967;50.852;4.400;2022-11-20T05:43:24;9.10;99.90
23579;DHT22;11967;50.852;4.400;2022-11-20T05:45:55;8.90;99.90
23579;DHT22;11967;50.852;4.400;2022-11-20T05:51:43;9.00;99.90
23579;DHT22;11967;50.852;4.400;2022-11-20T05:57:31;9.00;99.90
23579;DHT22;11967;50.852;4.400;2022-11-20T05:59:57;8.90;99.90
23579;DHT22;11967;50.852;4.400;2022-11-20T06:02:22;8.90;99.90
23579;DHT22;11967;50.852;4.400;2022-11-20T06:04:48;9.00;99.90
23579;DHT22;11967;50.852;4.400;2022-11-20T06:07:13;9.00;99.90
23579;DHT22;11967;50.852;4.400;2022-11-20T06:09:39;9.00;99.90
23579;DHT22;11967;50.852;4.400;2022-11-20T06:12:05;9.00;99.90
23579;DHT22;11967;50.852;4.400;2022-11-20T06:14:31;8.90;99.90
23579;DHT22;11967;50.852;4.400;2022-11-20T06:16:56;8.90;99.90
23579;DHT22;11967;50.852;4.400;2022-11-20T06:19:22;9.00;99.90
23579;DHT22;11967;50.852;4.400;2022-11-20T06:21:48;9.00;99.90
23579;DHT22;11967;50.852;4.400;2022-11-20T06:24:15;9.10;99.90
23579;DHT22;11967;50.852;4.400;2022-11-20T06:26:40;9.00;99.90
23579;DHT22;11967;50.852;4.400;2022-11-20T06:29:06;9.10;99.90
23579;DHT22;11967;50.852;4.400;2022-11-20T06:31:32;9.00;99.90
23579;DHT22;11967;50.852;4.400;2022-11-20T06:34:00;9.00;99.90
23579;DHT22;11967;50.852;4.400;2022-11-20T06:36:26;9.00;99.90
23579;DHT22;11967;50.852;4.400;2022-11-20T06:38:52;9.00;99.90
23579;DHT22;11967;50.852;4.400;2022-11-20T06:41:20;9.00;99.90
23579;DHT22;11967;50.852;4.400;2022-11-20T06:43:46;8.90;99.90
23579;DHT22;11967;50.852;4.400;2022-11-20T06:46:13;9.00;99.90
23579;DHT22;11967;50.852;4.400;2022-11-20T06:48:40;9.00;99.90
23579;DHT22;11967;50.852;4.400;2022-11-20T06:51:07;8.90;99.90
23579;DHT22;11967;50.852;4.400;2022-11-20T06:53:33;8.90;99.90
23579;DHT22;11967;50.852;4.400;2022-11-20T06:55:59;8.90;99.90
23579;DHT22;11967;50.852;4.400;2022-11-20T06:58:30;8.90;99.90
23579;DHT22;11967;50.852;4.400;2022-11-20T07:01:00;8.90;99.90
23579;DHT22;11967;50.852;4.400;2022-11-20T07:03:26;8.80;99.90
23579;DHT22;11967;50.852;4.400;2022-11-20T07:05:53;8.80;99.90
23579;DHT22;11967;50.852;4.400;2022-11-20T07:08:19;8.80;99.90
23579;DHT22;11967;50.852;4.400;2022-11-20T07:10:44;8.90;99.90
23579;DHT22;11967;50.852;4.400;2022-11-20T07:13:10;8.90;99.90
23579;DHT22;11967;50.852;4.400;2022-11-20T07:15:36;8.80;99.90
23579;DHT22;11967;50.852;4.400;2022-11-20T07:18:01;8.90;99.90
23579;DHT22;11967;50.852;4.400;2022-11-20T07:20:27;8.90;99.90
23579;DHT22;11967;50.852;4.400;2022-11-20T07:22:56;8.90;99.90
23579;DHT22;11967;50.852;4.400;2022-11-20T07:25:26;8.90;99.90
23579;DHT22;11967;50.852;4.400;2022-11-20T07:27:52;9.00;99.90
23579;DHT22;11967;50.852;4.400;2022-11-20T07:30:18;9.10;99.90
23579;DHT22;11967;50.852;4.400;2022-11-20T07:32:50;9.00;99.90
23579;DHT22;11967;50.852;4.400;2022-11-20T07:35:16;9.10;99.90
23579;DHT22;11967;50.852;4.400;2022-11-20T07:37:42;9.10;99.90
23579;DHT22;11967;50.852;4.400;2022-11-20T07:40:08;9.20;99.90
23579;DHT22;11967;50.852;4.400;2022-11-20T07:42:33;9.20;99.90
23579;DHT22;11967;50.852;4.400;2022-11-20T07:44:59;9.20;99.90
23579;DHT22;11967;50.852;4.400;2022-11-20T07:47:25;9.30;99.90
23579;DHT22;11967;50.852;4.400;2022-11-20T07:49:50;9.40;99.90
23579;DHT22;11967;50.852;4.400;2022-11-20T07:52:16;9.30;99.90
23579;DHT22;11967;50.852;4.400;2022-11-20T07:54:41;9.20;99.90
23579;DHT22;11967;50.852;4.400;2022-11-20T07:57:07;9.30;99.90
23579;DHT22;11967;50.852;4.400;2022-11-20T07:59:32;9.40;99.90
23579;DHT22;11967;50.852;4.400;2022-11-20T08:01:58;9.40;99.90
23579;DHT22;11967;50.852;4.400;2022-11-20T08:04:24;9.30;99.90
23579;DHT22;11967;50.852;4.400;2022-11-20T08:06:49;9.30;99.90
23579;DHT22;11967;50.852;4.400;2022-11-20T08:09:16;9.30;99.90
23579;DHT22;11967;50.852;4.400;2022-11-20T08:11:42;9.40;99.90
23579;DHT22;11967;50.852;4.400;2022-11-20T08:14:26;9.40;99.90
23579;DHT22;11967;50.852;4.400;2022-11-20T08:16:53;9.40;99.90
23579;DHT22;11967;50.852;4.400;2022-11-20T08:19:19;9.40;99.90
23579;DHT22;11967;50.852;4.400;2022-11-20T08:21:45;9.40;99.90
23579;DHT22;11967;50.852;4.400;2022-11-20T08:24:11;9.40;99.90
23579;DHT22;11967;50.852;4.400;2022-11-20T08:26:38;9.40;99.90
23579;DHT22;11967;50.852;4.400;2022-11-20T08:29:04;9.30;99.90
23579;DHT22;11967;50.852;4.400;2022-11-20T08:31:30;9.40;99.90
23579;DHT22;11967;50.852;4.400;2022-11-20T08:33:56;9.40;99.90
23579;DHT22;11967;50.852;4.400;2022-11-20T08:36:23;9.50;99.90
23579;DHT22;11967;50.852;4.400;2022-11-20T08:38:54;9.40;99.90
23579;DHT22;11967;50.852;4.400;2022-11-20T08:41:20;9.60;99.90
23579;DHT22;11967;50.852;4.400;2022-11-20T08:43:49;9.60;99.90
23579;DHT22;11967;50.852;4.400;2022-11-20T08:46:15;9.50;99.90
23579;DHT22;11967;50.852;4.400;2022-11-20T08:48:41;9.50;99.90
23579;DHT22;11967;50.852;4.400;2022-11-20T08:51:06;9.50;99.90
23579;DHT22;11967;50.852;4.400;2022-11-20T08:53:32;9.50;99.90
23579;DHT22;11967;50.852;4.400;2022-11-20T08:55:58;9.50;99.90
23579;DHT22;11967;50.852;4.400;2022-11-20T08:58:24;9.40;99.90
23579;DHT22;11967;50.852;4.400;2022-11-20T09:00:50;9.50;99.90
23579;DHT22;11967;50.852;4.400;2022-11-20T09:03:15;9.50;99.90
23579;DHT22;11967;50.852;4.400;2022-11-20T09:05:43;9.50;99.90
23579;DHT22;11967;50.852;4.400;2022-11-20T09:08:09;9.50;99.90
23579;DHT22;11967;50.852;4.400;2022-11-20T09:10:35;9.60;99.90
23579;DHT22;11967;50.852;4.400;2022-11-20T09:13:02;9.60;99.90
23579;DHT22;11967;50.852;4.400;2022-11-20T09:15:28;9.60;99.90
23579;DHT22;11967;50.852;4.400;2022-11-20T09:17:56;9.70;99.90
23579;DHT22;11967;50.852;4.400;2022-11-20T09:20:22;9.80;99.90
23579;DHT22;11967;50.852;4.400;2022-11-20T09:22:48;9.80;99.90
23579;DHT22;11967;50.852;4.400;2022-11-20T09:25:14;9.90;99.90
23579;DHT22;11967;50.852;4.400;2022-11-20T09:27:39;10.00;99.90
23579;DHT22;11967;50.852;4.400;2022-11-20T09:30:07;10.30;99.90
23579;DHT22;11967;50.852;4.400;2022-11-20T09:32:32;10.70;99.90
23579;DHT22;11967;50.852;4.400;2022-11-20T09:34:59;10.90;99.90
23579;DHT22;11967;50.852;4.400;2022-11-20T09:37:24;11.30;99.90
23579;DHT22;11967;50.852;4.400;2022-11-20T09:39:50;11.60;99.90
23579;DHT22;11967;50.852;4.400;2022-11-20T09:48:24;11.80;99.90
23579;DHT22;11967;50.852;4.400;2022-11-20T09:56:31;11.20;99.90
23579;DHT22;11967;50.852;4.400;2022-11-20T09:59:03;11.00;99.90
23579;DHT22;11967;50.852;4.400;2022-11-20T10:01:33;11.00;99.90
23579;DHT22;11967;50.852;4.400;2022-11-20T10:04:10;10.90;99.90
23579;DHT22;11967;50.852;4.400;2022-11-20T10:07:02;10.90;99.90
23579;DHT22;11967;50.852;4.400;2022-11-20T10:09:32;10.90;99.90
23579;DHT22;11967;50.852;4.400;2022-11-20T10:12:20;10.80;99.90
23579;DHT22;11967;50.852;4.400;2022-11-20T10:15:16;10.80;99.90
23579;DHT22;11967;50.852;4.400;2022-11-20T10:23:28;10.70;99.90
23579;DHT22;11967;50.852;4.400;2022-11-20T10:26:14;10.60;99.90
23579;DHT22;11967;50.852;4.400;2022-11-20T10:31:17;10.70;99.90
23579;DHT22;11967;50.852;4.400;2022-11-20T10:33:49;10.80;99.90
23579;DHT22;11967;50.852;4.400;2022-11-20T10:36:28;10.80;99.90
23579;DHT22;11967;50.852;4.400;2022-11-20T10:38:57;10.90;99.90
23579;DHT22;11967;50.852;4.400;2022-11-20T10:41:27;10.90;99.90
23579;DHT22;11967;50.852;4.400;2022-11-20T10:47:05;11.10;99.90
23579;DHT22;11967;50.852;4.400;2022-11-20T10:49:32;11.10;99.90
23579;DHT22;11967;50.852;4.400;2022-11-20T10:57:36;11.10;99.90
23579;DHT22;11967;50.852;4.400;2022-11-20T11:00:12;11.00;99.90
23579;DHT22;11967;50.852;4.400;2022-11-20T11:02:44;11.10;99.90
23579;DHT22;11967;50.852;4.400;2022-11-20T11:05:22;11.20;99.90
23579;DHT22;11967;50.852;4.400;2022-11-20T11:07:52;11.20;99.90
23579;DHT22;11967;50.852;4.400;2022-11-20T11:12:49;11.10;99.90
23579;DHT22;11967;50.852;4.400;2022-11-20T11:17:51;11.20;99.90
23579;DHT22;11967;50.852;4.400;2022-11-20T11:20:19;11.30;99.90
23579;DHT22;11967;50.852;4.400;2022-11-20T11:22:53;11.20;99.90
23579;DHT22;11967;50.852;4.400;2022-11-20T11:25:27;11.20;99.90
23579;DHT22;11967;50.852;4.400;2022-11-20T11:27:55;11.20;99.90
23579;DHT22;11967;50.852;4.400;2022-11-20T11:30:23;11.00;99.90
23579;DHT22;11967;50.852;4.400;2022-11-20T11:32:49;11.00;99.90
23579;DHT22;11967;50.852;4.400;2022-11-20T11:35:26;11.00;99.90
23579;DHT22;11967;50.852;4.400;2022-11-20T11:38:01;11.10;99.90
23579;DHT22;11967;50.852;4.400;2022-11-20T11:40:28;11.20;99.90
23579;DHT22;11967;50.852;4.400;2022-11-20T11:43:02;11.10;99.90
23579;DHT22;11967;50.852;4.400;2022-11-20T11:45:29;11.10;99.90
23579;DHT22;11967;50.852;4.400;2022-11-20T11:48:00;11.10;99.90
23579;DHT22;11967;50.852;4.400;2022-11-20T11:50:29;11.20;99.90
23579;DHT22;11967;50.852;4.400;2022-11-20T11:53:14;11.10;99.90
23579;DHT22;11967;50.852;4.400;2022-11-20T11:56:09;11.10;99.90
23579;DHT22;11967;50.852;4.400;2022-11-20T11:58:50;11.10;99.90
23579;DHT22;11967;50.852;4.400;2022-11-20T12:07:12;10.90;99.90
23579;DHT22;11967;50.852;4.400;2022-11-20T12:09:46;11.00;99.90
23579;DHT22;11967;50.852;4.400;2022-11-20T12:12:20;11.00;99.90
23579;DHT22;11967;50.852;4.400;2022-11-20T12:14:48;11.00;99.90
23579;DHT22;11967;50.852;4.400;2022-11-20T12:17:16;10.90;99.90
23579;DHT22;11967;50.852;4.400;2022-11-20T12:19:43;10.80;99.90
23579;DHT22;11967;50.852;4.400;2022-11-20T12:30:17;10.80;99.90
23579;DHT22;11967;50.852;4.400;2022-11-20T12:36:00;10.80;99.90
23579;DHT22;11967;50.852;4.400;2022-11-20T12:50:36;10.60;99.90
23579;DHT22;11967;50.852;4.400;2022-11-20T12:53:27;10.60;99.90
23579;DHT22;11967;50.852;4.400;2022-11-20T13:01:38;10.60;99.90
23579;DHT22;11967;50.852;4.400;2022-11-20T13:07:05;10.70;99.90
23579;DHT22;11967;50.852;4.400;2022-11-20T13:09:40;10.70;99.90
23579;DHT22;11967;50.852;4.400;2022-11-20T13:12:13;10.70;99.90
23579;DHT22;11967;50.852;4.400;2022-11-20T13:14:45;10.60;99.90
23579;DHT22;11967;50.852;4.400;2022-11-20T13:17:41;10.70;99.90
23579;DHT22;11967;50.852;4.400;2022-11-20T13:20:14;10.70;99.90
23579;DHT22;11967;50.852;4.400;2022-11-20T13:25:10;10.70;99.90
23579;DHT22;11967;50.852;4.400;2022-11-20T13:27:36;10.60;99.90
23579;DHT22;11967;50.852;4.400;2022-11-20T13:30:15;10.70;99.90
23579;DHT22;11967;50.852;4.400;2022-11-20T13:32:56;10.60;99.90
23579;DHT22;11967;50.852;4.400;2022-11-20T13:38:10;10.60;99.90
23579;DHT22;11967;50.852;4.400;2022-11-20T13:46:45;10.60;99.90
23579;DHT22;11967;50.852;4.400;2022-11-20T13:49:29;10.50;99.90
23579;DHT22;11967;50.852;4.400;2022-11-20T13:52:38;10.50;99.90
23579;DHT22;11967;50.852;4.400;2022-11-20T14:00:21;10.40;99.90
23579;DHT22;11967;50.852;4.400;2022-11-20T14:05:36;10.40;99.90
23579;DHT22;11967;50.852;4.400;2022-11-20T14:08:06;10.40;99.90
23579;DHT22;11967;50.852;4.400;2022-11-20T14:10:37;10.40;99.90
23579;DHT22;11967;50.852;4.400;2022-11-20T14:13:30;10.50;99.90
23579;DHT22;11967;50.852;4.400;2022-11-20T14:15:57;10.40;99.90
23579;DHT22;11967;50.852;4.400;2022-11-20T14:18:26;10.50;99.90
23579;DHT22;11967;50.852;4.400;2022-11-20T14:20:52;10.50;99.90
23579;DHT22;11967;50.852;4.400;2022-11-20T14:23:28;10.50;99.90
23579;DHT22;11967;50.852;4.400;2022-11-20T14:25:55;10.50;99.90
23579;DHT22;11967;50.852;4.400;2022-11-20T14:28:29;10.50;99.90
23579;DHT22;11967;50.852;4.400;2022-11-20T14:30:56;10.40;99.90
23579;DHT22;11967;50.852;4.400;2022-11-20T14:33:23;10.40;99.90
23579;DHT22;11967;50.852;4.400;2022-11-20T14:35:52;10.40;99.90
23579;DHT22;11967;50.852;4.400;2022-11-20T14:38:24;10.40;99.90
23579;DHT22;11967;50.852;4.400;2022-11-20T14:40:50;10.40;99.90
23579;DHT22;11967;50.852;4.400;2022-11-20T14:43:27;10.40;99.90
23579;DHT22;11967;50.852;4.400;2022-11-20T14:45:57;10.40;99.90
23579;DHT22;11967;50.852;4.400;2022-11-20T14:48:33;10.50;99.90
23579;DHT22;11967;50.852;4.400;2022-11-20T14:50:59;10.50;99.90
23579;DHT22;11967;50.852;4.400;2022-11-20T14:53:25;10.50;99.90
23579;DHT22;11967;50.852;4.400;2022-11-20T14:55:59;10.50;99.90
23579;DHT22;11967;50.852;4.400;2022-11-20T14:58:33;10.50;99.90
23579;DHT22;11967;50.852;4.400;2022-11-20T15:01:05;10.50;99.90
23579;DHT22;11967;50.852;4.400;2022-11-20T15:03:39;10.50;99.90
23579;DHT22;11967;50.852;4.400;2022-11-20T15:06:06;10.40;99.90
23579;DHT22;11967;50.852;4.400;2022-11-20T15:08:32;10.50;99.90
23579;DHT22;11967;50.852;4.400;2022-11-20T15:10:58;10.40;99.90
23579;DHT22;11967;50.852;4.400;2022-11-20T15:15:54;10.50;99.90
23579;DHT22;11967;50.852;4.400;2022-11-20T15:18:31;10.60;99.90
23579;DHT22;11967;50.852;4.400;2022-11-20T15:21:01;10.60;99.90
23579;DHT22;11967;50.852;4.400;2022-11-20T15:23:27;10.70;99.90
23579;DHT22;11967;50.852;4.400;2022-11-20T15:25:53;10.70;99.90
23579;DHT22;11967;50.852;4.400;2022-11-20T15:28:41;10.80;99.90
23579;DHT22;11967;50.852;4.400;2022-11-20T15:31:09;10.70;99.90
23579;DHT22;11967;50.852;4.400;2022-11-20T15:33:36;10.60;99.90
23579;DHT22;11967;50.852;4.400;2022-11-20T15:36:02;10.60;99.90
23579;DHT22;11967;50.852;4.400;2022-11-20T15:38:28;10.70;99.90
23579;DHT22;11967;50.852;4.400;2022-11-20T15:40:54;10.70;99.90
23579;DHT22;11967;50.852;4.400;2022-11-20T15:43:19;10.70;99.90
23579;DHT22;11967;50.852;4.400;2022-11-20T15:48:21;10.70;99.90
23579;DHT22;11967;50.852;4.400;2022-11-20T15:50:49;10.60;99.90
23579;DHT22;11967;50.852;4.400;2022-11-20T15:53:16;10.70;99.90
23579;DHT22;11967;50.852;4.400;2022-11-20T15:55:41;10.70;99.90
23579;DHT22;11967;50.852;4.400;2022-11-20T15:58:07;10.80;99.90
23579;DHT22;11967;50.852;4.400;2022-11-20T16:00:33;10.90;99.90
23579;DHT22;11967;50.852;4.400;2022-11-20T16:02:58;10.90;99.90
23579;DHT22;11967;50.852;4.400;2022-11-20T16:05:28;11.00;99.90
23579;DHT22;11967;50.852;4.400;2022-11-20T16:07:53;10.90;99.90
23579;DHT22;11967;50.852;4.400;2022-11-20T16:10:19;10.90;99.90
23579;DHT22;11967;50.852;4.400;2022-11-20T16:12:44;11.00;99.90
23579;DHT22;11967;50.852;4.400;2022-11-20T16:15:28;10.90;99.90
23579;DHT22;11967;50.852;4.400;2022-11-20T16:18:18;10.90;99.90
23579;DHT22;11967;50.852;4.400;2022-11-20T16:20:54;11.00;99.90
23579;DHT22;11967;50.852;4.400;2022-11-20T16:23:21;10.90;99.90
23579;DHT22;11967;50.852;4.400;2022-11-20T16:25:47;10.90;99.90
23579;DHT22;11967;50.852;4.400;2022-11-20T16:28:12;11.00;99.90
23579;DHT22;11967;50.852;4.400;2022-11-20T16:30:38;10.90;99.90
23579;DHT22;11967;50.852;4.400;2022-11-20T16:33:09;11.00;99.90
23579;DHT22;11967;50.852;4.400;2022-11-20T16:35:34;10.90;99.90
23579;DHT22;11967;50.852;4.400;2022-11-20T16:38:00;10.90;99.90
23579;DHT22;11967;50.852;4.400;2022-11-20T16:40:26;11.00;99.90
23579;DHT22;11967;50.852;4.400;2022-11-20T16:42:51;10.90;99.90
23579;DHT22;11967;50.852;4.400;2022-11-20T16:45:17;11.00;99.90
23579;DHT22;11967;50.852;4.400;2022-11-20T16:47:43;11.00;99.90
23579;DHT22;11967;50.852;4.400;2022-11-20T16:50:09;10.90;99.90
23579;DHT22;11967;50.852;4.400;2022-11-20T16:52:35;11.00;99.90
23579;DHT22;11967;50.852;4.400;2022-11-20T16:55:01;11.10;99.90
23579;DHT22;11967;50.852;4.400;2022-11-20T16:57:28;11.00;99.90
23579;DHT22;11967;50.852;4.400;2022-11-20T16:59:54;10.90;99.90
23579;DHT22;11967;50.852;4.400;2022-11-20T17:02:20;11.00;99.90
23579;DHT22;11967;50.852;4.400;2022-11-20T17:04:46;11.00;99.90
23579;DHT22;11967;50.852;4.400;2022-11-20T17:07:11;11.00;99.90
23579;DHT22;11967;50.852;4.400;2022-11-20T17:09:38;11.10;99.90
23579;DHT22;11967;50.852;4.400;2022-11-20T17:12:04;11.20;99.90
23579;DHT22;11967;50.852;4.400;2022-11-20T17:14:29;11.30;99.90
23579;DHT22;11967;50.852;4.400;2022-11-20T17:16:55;11.30;99.90
23579;DHT22;11967;50.852;4.400;2022-11-20T17:19:20;11.30;99.90
23579;DHT22;11967;50.852;4.400;2022-11-20T17:21:46;11.30;99.90
23579;DHT22;11967;50.852;4.400;2022-11-20T17:24:12;11.30;99.90
23579;DHT22;11967;50.852;4.400;2022-11-20T17:26:41;11.20;99.90
23579;DHT22;11967;50.852;4.400;2022-11-20T17:29:15;11.20;99.90
23579;DHT22;11967;50.852;4.400;2022-11-20T17:31:41;11.30;99.90
23579;DHT22;11967;50.852;4.400;2022-11-20T17:34:11;11.20;99.90
23579;DHT22;11967;50.852;4.400;2022-11-20T17:36:37;11.30;99.90
23579;DHT22;11967;50.852;4.400;2022-11-20T17:39:13;11.40;99.90
23579;DHT22;11967;50.852;4.400;2022-11-20T17:41:38;11.40;99.90
23579;DHT22;11967;50.852;4.400;2022-11-20T17:44:04;11.30;99.90
23579;DHT22;11967;50.852;4.400;2022-11-20T17:46:31;11.30;99.90
23579;DHT22;11967;50.852;4.400;2022-11-20T17:48:57;11.30;99.90
23579;DHT22;11967;50.852;4.400;2022-11-20T17:51:25;11.30;99.90
23579;DHT22;11967;50.852;4.400;2022-11-20T17:53:57;11.20;99.90
23579;DHT22;11967;50.852;4.400;2022-11-20T17:56:23;11.20;99.90
23579;DHT22;11967;50.852;4.400;2022-11-20T17:59:09;11.20;99.90
23579;DHT22;11967;50.852;4.400;2022-11-20T18:01:35;11.30;99.90
23579;DHT22;11967;50.852;4.400;2022-11-20T18:04:01;11.30;99.90
23579;DHT22;11967;50.852;4.400;2022-11-20T18:06:28;11.20;99.90
23579;DHT22;11967;50.852;4.400;2022-11-20T18:08:54;10.80;99.90
23579;DHT22;11967;50.852;4.400;2022-11-20T18:11:27;10.70;99.90
23579;DHT22;11967;50.852;4.400;2022-11-20T18:13:56;10.60;99.90
23579;DHT22;11967;50.852;4.400;2022-11-20T18:16:47;10.60;99.90
23579;DHT22;11967;50.852;4.400;2022-11-20T18:19:15;10.70;99.90
23579;DHT22;11967;50.852;4.400;2022-11-20T18:21:41;10.80;99.90
23579;DHT22;11967;50.852;4.400;2022-11-20T18:24:07;10.70;99.90
23579;DHT22;11967;50.852;4.400;2022-11-20T18:26:33;10.80;99.90
23579;DHT22;11967;50.852;4.400;2022-11-20T18:28:59;10.80;99.90
23579;DHT22;11967;50.852;4.400;2022-11-20T18:31:24;10.90;99.90
23579;DHT22;11967;50.852;4.400;2022-11-20T18:33:50;10.90;99.90
23579;DHT22;11967;50.852;4.400;2022-11-20T18:36:22;10.90;99.90
23579;DHT22;11967;50.852;4.400;2022-11-20T18:38:50;10.90;99.90
23579;DHT22;11967;50.852;4.400;2022-11-20T18:41:18;11.00;99.90
23579;DHT22;11967;50.852;4.400;2022-11-20T18:44:05;11.00;99.90
23579;DHT22;11967;50.852;4.400;2022-11-20T18:46:50;10.90;99.90
23579;DHT22;11967;50.852;4.400;2022-11-20T18:49:15;10.90;99.90
23579;DHT22;11967;50.852;4.400;2022-11-20T18:51:42;11.00;99.90
23579;DHT22;11967;50.852;4.400;2022-11-20T18:54:09;11.00;99.90
23579;DHT22;11967;50.852;4.400;2022-11-20T18:56:35;11.10;99.90
23579;DHT22;11967;50.852;4.400;2022-11-20T18:59:01;11.30;99.90
23579;DHT22;11967;50.852;4.400;2022-11-20T19:01:27;11.40;99.90
23579;DHT22;11967;50.852;4.400;2022-11-20T19:03:53;11.40;99.90
23579;DHT22;11967;50.852;4.400;2022-11-20T19:06:18;11.40;99.90
23579;DHT22;11967;50.852;4.400;2022-11-20T19:08:44;11.30;99.90
23579;DHT22;11967;50.852;4.400;2022-11-20T19:11:11;11.30;99.90
23579;DHT22;11967;50.852;4.400;2022-11-20T19:13:37;11.10;99.90
23579;DHT22;11967;50.852;4.400;2022-11-20T19:16:13;11.00;99.90
23579;DHT22;11967;50.852;4.400;2022-11-20T19:18:40;10.90;99.90
23579;DHT22;11967;50.852;4.400;2022-11-20T19:21:07;11.00;99.90
23579;DHT22;11967;50.852;4.400;2022-11-20T19:23:33;11.10;99.90
23579;DHT22;11967;50.852;4.400;2022-11-20T19:25:59;11.20;99.90
23579;DHT22;11967;50.852;4.400;2022-11-20T19:28:26;11.10;99.90
23579;DHT22;11967;50.852;4.400;2022-11-20T19:30:52;11.00;99.90
23579;DHT22;11967;50.852;4.400;2022-11-20T19:33:23;11.00;99.90
23579;DHT22;11967;50.852;4.400;2022-11-20T19:35:49;11.00;99.90
23579;DHT22;11967;50.852;4.400;2022-11-20T19:38:15;11.20;99.90
23579;DHT22;11967;50.852;4.400;2022-11-20T19:40:41;11.40;99.90
23579;DHT22;11967;50.852;4.400;2022-11-20T19:43:07;11.30;99.90
23579;DHT22;11967;50.852;4.400;2022-11-20T19:45:32;11.20;99.90
23579;DHT22;11967;50.852;4.400;2022-11-20T19:47:58;11.30;99.90
23579;DHT22;11967;50.852;4.400;2022-11-20T19:50:24;11.20;99.90
23579;DHT22;11967;50.852;4.400;2022-11-20T19:52:49;11.20;99.90
23579;DHT22;11967;50.852;4.400;2022-11-20T19:55:15;11.20;99.90
23579;DHT22;11967;50.852;4.400;2022-11-20T19:57:41;11.20;99.90
23579;DHT22;11967;50.852;4.400;2022-11-20T20:00:07;11.20;99.90
23579;DHT22;11967;50.852;4.400;2022-11-20T20:02:32;11.00;99.90
23579;DHT22;11967;50.852;4.400;2022-11-20T20:04:58;10.90;99.90
23579;DHT22;11967;50.852;4.400;2022-11-20T20:07:24;11.00;99.90
23579;DHT22;11967;50.852;4.400;2022-11-20T20:09:49;11.00;99.90
23579;DHT22;11967;50.852;4.400;2022-11-20T20:12:15;10.80;99.90
23579;DHT22;11967;50.852;4.400;2022-11-20T20:14:40;10.90;99.90
23579;DHT22;11967;50.852;4.400;2022-11-20T20:17:06;10.90;99.90
23579;DHT22;11967;50.852;4.400;2022-11-20T20:19:31;10.90;99.90
23579;DHT22;11967;50.852;4.400;2022-11-20T20:21:57;10.90;99.90
23579;DHT22;11967;50.852;4.400;2022-11-20T20:24:23;10.80;99.90
23579;DHT22;11967;50.852;4.400;2022-11-20T20:26:48;10.70;99.90
23579;DHT22;11967;50.852;4.400;2022-11-20T20:29:14;10.70;99.90
23579;DHT22;11967;50.852;4.400;2022-11-20T20:31:40;10.70;99.90
23579;DHT22;11967;50.852;4.400;2022-11-20T20:34:05;10.60;99.90
23579;DHT22;11967;50.852;4.400;2022-11-20T20:36:31;10.60;99.90
23579;DHT22;11967;50.852;4.400;2022-11-20T20:38:58;10.50;99.90
23579;DHT22;11967;50.852;4.400;2022-11-20T20:41:24;10.60;99.90